createdAt,value
2022-08-14T00:02:21.047Z,101113.16
2022-08-14T00:04:47.557Z,101103.38
2022-08-14T00:07:14.597Z,101114.53
2022-08-14T00:10:01.830Z,101111.97
2022-08-14T00:12:33.792Z,101116.78
2022-08-14T00:15:15.193Z,101112.69
2022-08-14T00:17:48.150Z,101103.56
2022-08-14T00:20:23.384Z,101108.34
2022-08-14T00:22:57.490Z,101107.69
2022-08-14T00:25:24.463Z,101106.97
2022-08-14T00:27:56.954Z,101114.72
2022-08-14T00:30:23.313Z,101110.44
2022-08-14T00:32:56.629Z,101111.63
2022-08-14T00:35:43.024Z,101104.75
2022-08-14T00:38:09.288Z,101099.63
2022-08-14T00:40:36.237Z,101101.88
2022-08-14T00:43:02.694Z,101095.50
2022-08-14T00:45:30.471Z,101097.41
2022-08-14T00:47:57.467Z,101086.59
2022-08-14T00:50:26.399Z,101099.63
2022-08-14T00:52:54.420Z,101098.09
2022-08-14T00:55:20.714Z,101099.31
2022-08-14T00:57:47.056Z,101090.38
2022-08-14T01:00:34.330Z,101087.78
2022-08-14T01:03:03.399Z,101084.38
2022-08-14T01:05:41.760Z,101083.34
2022-08-14T01:08:50.605Z,101084.38
2022-08-14T01:11:02.202Z,101080.09
2022-08-14T01:13:42.258Z,101079.25
2022-08-14T01:16:09.363Z,101081.44
2022-08-14T01:18:40.242Z,101081.81
2022-08-14T01:21:06.477Z,101079.22
2022-08-14T01:23:41.672Z,101071.16
2022-08-14T01:26:12.722Z,101072.00
2022-08-14T01:28:56.791Z,101077.50
2022-08-14T01:31:24.050Z,101076.31
2022-08-14T01:35:15.773Z,101072.72
2022-08-14T01:36:36.768Z,101074.25
2022-08-14T01:39:03.362Z,101077.88
2022-08-14T01:41:36.074Z,101073.22
2022-08-14T01:44:02.478Z,101080.44
2022-08-14T01:46:33.489Z,101081.44
2022-08-14T01:49:03.168Z,101082.28
2022-08-14T01:51:29.441Z,101085.03
2022-08-14T01:53:56.419Z,101073.22
2022-08-14T01:56:22.864Z,101082.16
2022-08-14T01:58:58.169Z,101076.66
2022-08-14T02:01:26.448Z,101074.59
2022-08-14T02:03:53.387Z,101075.44
2022-08-14T02:06:33.257Z,101076.13
2022-08-14T02:09:00.047Z,101068.75
2022-08-14T02:11:26.368Z,101074.94
2022-08-14T02:13:52.703Z,101072.19
2022-08-14T02:16:22.300Z,101070.13
2022-08-14T02:18:49.540Z,101073.53
2022-08-14T02:21:15.799Z,101068.94
2022-08-14T02:23:45.796Z,101067.91
2022-08-14T02:26:24.340Z,101062.25
2022-08-14T02:28:57.617Z,101068.75
2022-08-14T02:31:36.007Z,101067.19
2022-08-14T02:34:02.760Z,101061.22
2022-08-14T02:37:02.639Z,101061.53
2022-08-14T02:39:27.759Z,101058.13
2022-08-14T02:41:58.016Z,101064.81
2022-08-14T02:44:29.600Z,101062.94
2022-08-14T02:47:01.491Z,101052.97
2022-08-14T02:49:34.287Z,101054.84
2022-08-14T02:52:00.666Z,101048.34
2022-08-14T02:54:26.909Z,101044.56
2022-08-14T02:57:13.934Z,101046.28
2022-08-14T02:59:39.592Z,101049.03
2022-08-14T03:02:09.647Z,101043.56
2022-08-14T03:04:55.864Z,101039.94
2022-08-14T03:07:22.127Z,101040.81
2022-08-14T03:10:27.680Z,101038.06
2022-08-14T03:12:36.403Z,101038.72
2022-08-14T03:15:02.630Z,101036.16
2022-08-14T03:17:31.924Z,101038.06
2022-08-14T03:20:07.677Z,101035.50
2022-08-14T03:22:37.788Z,101038.25
2022-08-14T03:25:08.219Z,101038.38
2022-08-14T03:27:48.423Z,101038.38
2022-08-14T03:30:23.657Z,101040.28
2022-08-14T03:32:49.988Z,101037.53
2022-08-14T03:35:17.757Z,101038.56
2022-08-14T03:39:10.616Z,101041.81
2022-08-14T03:40:30.260Z,101035.84
2022-08-14T03:42:56.488Z,101040.63
2022-08-14T03:45:34.686Z,101047.31
2022-08-14T03:48:01.612Z,101042.16
2022-08-14T03:50:31.708Z,101040.66
2022-08-14T03:53:00.574Z,101031.91
2022-08-14T03:55:27.100Z,101028.31
2022-08-14T03:57:53.843Z,101025.91
2022-08-14T04:00:43.549Z,101014.59
2022-08-14T04:03:06.528Z,101020.25
2022-08-14T04:05:38.060Z,101016.63
2022-08-14T04:08:28.988Z,101013.03
2022-08-14T04:10:55.702Z,101017.50
2022-08-14T04:13:23.727Z,101012.19
2022-08-14T04:15:56.135Z,101006.00
2022-08-14T04:18:28.634Z,101012.53
2022-08-14T04:20:55.988Z,101001.84
2022-08-14T04:23:23.771Z,101003.59
2022-08-14T04:25:56.374Z,100999.84
2022-08-14T04:29:07.767Z,101002.56
2022-08-14T04:31:09.035Z,101005.16
2022-08-14T04:33:37.262Z,101003.06
2022-08-14T04:36:03.614Z,101001.22
2022-08-14T04:38:37.268Z,101004.13
2022-08-14T04:41:04.748Z,101010.28
2022-08-14T04:43:38.297Z,101001.88
2022-08-14T04:46:05.168Z,101007.19
2022-08-14T04:48:43.254Z,101007.38
2022-08-14T04:51:17.448Z,101013.72
2022-08-14T04:53:43.912Z,101006.19
2022-08-14T04:56:30.675Z,101002.25
2022-08-14T04:58:57.221Z,101002.72
2022-08-14T05:01:23.493Z,101013.34
2022-08-14T05:03:51.387Z,101007.56
2022-08-14T05:06:35.058Z,101002.72
2022-08-14T05:09:04.038Z,100997.06
2022-08-14T05:11:31.111Z,100996.91
2022-08-14T05:14:34.141Z,100996.72
2022-08-14T05:16:43.657Z,100994.50
2022-08-14T05:19:18.489Z,100985.06
2022-08-14T05:21:57.031Z,100980.75
2022-08-14T05:24:25.447Z,100984.00
2022-08-14T05:26:51.685Z,100980.91
2022-08-14T05:29:17.967Z,100985.19
2022-08-14T05:31:44.440Z,100985.03
2022-08-14T05:34:10.666Z,100973.69
2022-08-14T05:36:38.016Z,100980.53
2022-08-14T05:39:05.820Z,100981.06
2022-08-14T05:41:52.352Z,100970.38
2022-08-14T05:44:20.361Z,100970.91
2022-08-14T05:46:46.571Z,100966.78
2022-08-14T05:49:13.172Z,100964.16
2022-08-14T05:51:39.487Z,100969.84
2022-08-14T05:54:13.902Z,100975.31
2022-08-14T05:56:52.047Z,100965.66
2022-08-14T05:59:18.336Z,100963.91
2022-08-14T06:01:45.685Z,100970.94
2022-08-14T06:04:12.932Z,100966.78
2022-08-14T06:06:42.021Z,100971.06
2022-08-14T06:09:09.829Z,100971.22
2022-08-14T06:11:36.475Z,100959.69
2022-08-14T06:14:02.997Z,100958.28
2022-08-14T06:16:29.987Z,100963.06
2022-08-14T06:18:59.705Z,100963.38
2022-08-14T06:21:26.885Z,100957.31
2022-08-14T06:23:53.626Z,100956.94
2022-08-14T06:26:20.876Z,100949.19
2022-08-14T06:28:51.821Z,100941.25
2022-08-14T06:31:18.975Z,100936.25
2022-08-14T06:35:02.116Z,100934.81
2022-08-14T06:36:33.014Z,100933.06
2022-08-14T06:38:59.506Z,100941.13
2022-08-14T06:41:57.625Z,100932.53
2022-08-14T06:44:12.567Z,100939.34
2022-08-14T06:46:38.832Z,100940.69
2022-08-14T06:49:05.129Z,100933.78
2022-08-14T06:51:38.896Z,100937.03
2022-08-14T06:54:10.732Z,100939.22
2022-08-14T06:56:38.264Z,100935.72
2022-08-14T06:59:05.370Z,100918.63
2022-08-14T07:01:32.657Z,100923.59
2022-08-14T07:03:59.351Z,100930.06
2022-08-14T07:06:46.540Z,100928.28
2022-08-14T07:09:11.920Z,100917.81
2022-08-14T07:11:38.205Z,100920.31
2022-08-14T07:14:04.511Z,100921.09
2022-08-14T07:16:31.264Z,100910.13
2022-08-14T07:18:57.858Z,100909.00
2022-08-14T07:21:25.018Z,100913.34
2022-08-14T07:23:51.486Z,100914.09
2022-08-14T07:26:17.859Z,100900.00
2022-08-14T07:28:44.186Z,100908.81
2022-08-14T07:31:10.547Z,100908.91
2022-08-14T07:33:36.898Z,100904.31
2022-08-14T07:36:03.440Z,100898.91
2022-08-14T07:38:52.355Z,100892.59
2022-08-14T07:41:18.820Z,100892.47
2022-08-14T07:43:53.081Z,100897.00
2022-08-14T07:46:29.444Z,100896.03
2022-08-14T07:48:57.187Z,100895.88
2022-08-14T07:51:23.444Z,100895.72
2022-08-14T07:53:50.040Z,100886.00
2022-08-14T07:56:44.240Z,100889.88
2022-08-14T07:59:09.832Z,100879.75
2022-08-14T08:01:36.253Z,100881.09
2022-08-14T08:04:03.339Z,100878.00
2022-08-14T08:06:29.781Z,100883.78
2022-08-14T08:09:01.334Z,100874.94
2022-08-14T08:11:29.607Z,100867.34
2022-08-14T08:14:01.589Z,100869.94
2022-08-14T08:16:27.797Z,100864.03
2022-08-14T08:18:58.686Z,100868.31
2022-08-14T08:21:33.195Z,100869.03
2022-08-14T08:24:01.719Z,100870.53
2022-08-14T08:26:29.868Z,100869.50
2022-08-14T08:28:56.109Z,100861.00
2022-08-14T08:31:23.833Z,100866.78
2022-08-14T08:33:59.386Z,100861.44
2022-08-14T08:36:25.590Z,100854.44
2022-08-14T08:39:16.877Z,100850.22
2022-08-14T08:41:43.412Z,100848.31
2022-08-14T08:44:30.076Z,100848.97
2022-08-14T08:46:55.963Z,100846.41
2022-08-14T08:49:22.559Z,100848.56
2022-08-14T08:51:49.483Z,100843.22
2022-08-14T08:54:19.952Z,100835.78
2022-08-14T08:56:49.969Z,100830.88
2022-08-14T08:59:18.206Z,100838.13
2022-08-14T09:01:46.663Z,100833.81
2022-08-14T09:04:18.612Z,100833.16
2022-08-14T09:07:09.309Z,100823.16
2022-08-14T09:09:33.984Z,100825.06
2022-08-14T09:12:19.318Z,100822.28
2022-08-14T09:14:45.719Z,100819.72
2022-08-14T09:17:14.542Z,100819.50
2022-08-14T09:19:41.328Z,100825.44
2022-08-14T09:22:35.681Z,100811.78
2022-08-14T09:24:53.954Z,100803.22
2022-08-14T09:27:22.641Z,100797.66
2022-08-14T09:29:54.224Z,100810.81
2022-08-14T09:32:59.300Z,100800.50
2022-08-14T09:35:08.366Z,100802.78
2022-08-14T09:37:34.926Z,100796.84
2022-08-14T09:40:01.215Z,100782.91
2022-08-14T09:42:34.044Z,100787.72
2022-08-14T09:45:11.554Z,100789.16
2022-08-14T09:47:38.475Z,100796.13
2022-08-14T09:50:08.122Z,100787.91
2022-08-14T09:52:34.609Z,100789.13
2022-08-14T09:55:01.003Z,100783.50
2022-08-14T09:57:27.674Z,100776.41
2022-08-14T09:59:55.165Z,100779.38
2022-08-14T10:02:21.407Z,100768.81
2022-08-14T10:04:49.927Z,100765.97
2022-08-14T10:07:16.417Z,100767.75
2022-08-14T10:09:42.659Z,100755.00
2022-08-14T10:12:28.986Z,100766.31
2022-08-14T10:14:55.569Z,100762.38
2022-08-14T10:17:21.803Z,100762.06
2022-08-14T10:19:49.927Z,100759.88
2022-08-14T10:23:13.697Z,100756.78
2022-08-14T10:25:02.515Z,100750.75
2022-08-14T10:27:29.135Z,100737.84
2022-08-14T10:29:55.503Z,100748.75
2022-08-14T10:32:36.135Z,100735.00
2022-08-14T10:35:02.823Z,100718.19
2022-08-14T10:37:31.661Z,100722.19
2022-08-14T10:40:02.051Z,100720.63
2022-08-14T10:42:36.552Z,100716.25
2022-08-14T10:45:04.358Z,100712.72
2022-08-14T10:47:39.478Z,100698.72
2022-08-14T10:50:16.822Z,100696.69
2022-08-14T10:52:43.276Z,100694.88
2022-08-14T10:55:09.582Z,100684.97
2022-08-14T10:57:39.053Z,100685.13
2022-08-14T11:00:05.276Z,100688.94
2022-08-14T11:02:50.263Z,100671.81
2022-08-14T11:05:18.720Z,100687.75
2022-08-14T11:07:45.053Z,100680.63
2022-08-14T11:10:11.258Z,100687.09
2022-08-14T11:12:40.758Z,100674.31
2022-08-14T11:15:07.009Z,100683.25
2022-08-14T11:17:34.356Z,100675.91
2022-08-14T11:20:00.564Z,100679.19
2022-08-14T11:22:57.066Z,100683.38
2022-08-14T11:25:12.992Z,100675.50
2022-08-14T11:27:41.536Z,100682.16
2022-08-14T11:30:49.257Z,100670.19
2022-08-14T11:32:54.385Z,100667.03
2022-08-14T11:35:21.214Z,100659.31
2022-08-14T11:37:47.473Z,100658.34
2022-08-14T11:40:15.381Z,100652.53
2022-08-14T11:42:58.445Z,100658.00
2022-08-14T11:45:29.708Z,100658.09
2022-08-14T11:48:13.239Z,100653.66
2022-08-14T11:50:42.395Z,100650.00
2022-08-14T11:53:09.710Z,100646.97
2022-08-14T11:55:40.023Z,100651.09
2022-08-14T11:58:06.907Z,100638.75
2022-08-14T12:00:39.533Z,100642.72
2022-08-14T12:03:14.791Z,100629.44
2022-08-14T12:05:43.245Z,100627.72
2022-08-14T12:08:11.118Z,100624.44
2022-08-14T12:10:43.099Z,100624.06
2022-08-14T12:13:09.757Z,100630.34
2022-08-14T12:15:36.286Z,100627.78
2022-08-14T12:18:02.547Z,100626.47
2022-08-14T12:20:32.523Z,100618.09
2022-08-14T12:22:59.087Z,100607.81
2022-08-14T12:25:26.460Z,100605.25
2022-08-14T12:27:54.290Z,100605.00
2022-08-14T12:30:21.626Z,100603.44
2022-08-14T12:32:47.973Z,100597.47
2022-08-14T12:35:14.555Z,100601.72
2022-08-14T12:37:43.307Z,100587.31
2022-08-14T12:40:09.816Z,100594.06
2022-08-14T12:42:36.433Z,100580.34
2022-08-14T12:45:06.861Z,100582.63
2022-08-14T12:47:33.148Z,100577.81
2022-08-14T12:49:59.385Z,100576.34
2022-08-14T12:52:36.345Z,100576.59
2022-08-14T12:55:11.866Z,100574.16
2022-08-14T12:57:38.165Z,100563.78
2022-08-14T13:00:04.806Z,100578.34
2022-08-14T13:02:50.164Z,100569.66
2022-08-14T13:05:21.740Z,100564.59
2022-08-14T13:07:49.905Z,100559.44
2022-08-14T13:10:51.250Z,100561.75
2022-08-14T13:13:13.525Z,100559.34
2022-08-14T13:15:42.039Z,100549.16
2022-08-14T13:18:10.865Z,100546.63
2022-08-14T13:20:37.169Z,100545.84
2022-08-14T13:23:03.826Z,100541.41
2022-08-14T13:25:30.408Z,100529.38
2022-08-14T13:27:56.626Z,100532.66
2022-08-14T13:30:24.372Z,100523.78
2022-08-14T13:32:50.968Z,100518.75
2022-08-14T13:35:17.639Z,100510.34
2022-08-14T13:37:44.240Z,100503.88
2022-08-14T13:40:11.022Z,100496.47
2022-08-14T13:42:37.711Z,100495.19
2022-08-14T13:45:05.223Z,100493.09
2022-08-14T13:47:31.521Z,100490.09
2022-08-14T13:49:58.443Z,100479.25
2022-08-14T13:52:52.136Z,100478.75
2022-08-14T13:55:13.888Z,100476.53
2022-08-14T13:57:40.457Z,100476.00
2022-08-14T14:00:17.894Z,100469.06
2022-08-14T14:02:45.784Z,100466.78
2022-08-14T14:05:12.347Z,100469.00
2022-08-14T14:07:43.478Z,100456.97
2022-08-14T14:10:10.405Z,100456.13
2022-08-14T14:12:40.735Z,100441.53
2022-08-14T14:15:07.805Z,100448.84
2022-08-14T14:17:36.027Z,100435.97
2022-08-14T14:20:04.608Z,100434.56
2022-08-14T14:22:35.973Z,100435.69
2022-08-14T14:25:19.550Z,100417.75
2022-08-14T14:27:48.925Z,100424.44
2022-08-14T14:30:45.968Z,100410.47
2022-08-14T14:33:14.395Z,100406.81
2022-08-14T14:35:52.570Z,100415.19
2022-08-14T14:38:18.891Z,100413.50
2022-08-14T14:40:52.664Z,100419.09
2022-08-14T14:43:21.372Z,100412.94
2022-08-14T14:45:49.973Z,100409.03
2022-08-14T14:48:19.453Z,100409.03
2022-08-14T14:50:45.813Z,100404.56
2022-08-14T14:53:13.169Z,100404.81
2022-08-14T14:55:54.214Z,100403.16
2022-08-14T14:58:26.242Z,100410.72
2022-08-14T15:00:53.362Z,100410.44
2022-08-14T15:03:21.337Z,100409.56
2022-08-14T15:05:47.690Z,100405.34
2022-08-14T15:08:17.138Z,100401.41
2022-08-14T15:10:53.266Z,100394.94
2022-08-14T15:13:19.579Z,100395.56
2022-08-14T15:15:47.880Z,100386.84
2022-08-14T15:18:39.218Z,100386.28
2022-08-14T15:21:05.386Z,100382.91
2022-08-14T15:23:43.891Z,100381.28
2022-08-14T15:26:11.261Z,100383.25
2022-08-14T15:28:39.713Z,100383.28
2022-08-14T15:31:06.058Z,100378.78
2022-08-14T15:33:35.654Z,100377.91
2022-08-14T15:36:02.328Z,100371.72
2022-08-14T15:38:29.278Z,100378.75
2022-08-14T15:40:56.316Z,100372.88
2022-08-14T15:43:22.752Z,100355.81
2022-08-14T15:45:53.566Z,100355.53
2022-08-14T15:48:22.537Z,100361.41
2022-08-14T15:50:50.969Z,100356.91
2022-08-14T15:53:18.082Z,100357.78
2022-08-14T15:55:45.993Z,100358.88
2022-08-14T15:58:14.570Z,100355.53
2022-08-14T16:00:44.303Z,100354.16
2022-08-14T16:03:16.813Z,100349.38
2022-08-14T16:05:43.218Z,100341.78
2022-08-14T16:08:26.813Z,100346.84
2022-08-14T16:10:55.749Z,100343.19
2022-08-14T16:13:42.042Z,100339.22
2022-08-14T16:16:48.929Z,100331.69
2022-08-14T16:18:54.612Z,100335.31
2022-08-14T16:21:20.883Z,100331.69
2022-08-14T16:23:48.219Z,100336.47
2022-08-14T16:26:19.985Z,100330.25
2022-08-14T16:28:46.455Z,100322.41
2022-08-14T16:31:17.616Z,100314.56
2022-08-14T16:33:59.697Z,100314.59
2022-08-14T16:36:30.231Z,100315.72
2022-08-14T16:38:57.293Z,100310.94
2022-08-14T16:41:26.422Z,100306.69
2022-08-14T16:43:53.035Z,100301.97
2022-08-14T16:46:22.429Z,100305.03
2022-08-14T16:48:57.005Z,100301.69
2022-08-14T16:51:24.893Z,100296.41
2022-08-14T16:53:51.369Z,100301.72
2022-08-14T16:56:23.678Z,100292.47
2022-08-14T16:58:50.551Z,100293.59
2022-08-14T17:01:24.377Z,100297.53
2022-08-14T17:03:51.315Z,100288.56
2022-08-14T17:06:30.561Z,100285.19
2022-08-14T17:08:59.769Z,100283.78
2022-08-14T17:11:27.765Z,100287.72
2022-08-14T17:14:00.565Z,100281.84
2022-08-14T17:16:27.540Z,100274.28
2022-08-14T17:19:00.019Z,100287.69
2022-08-14T17:21:31.766Z,100274.53
2022-08-14T17:23:58.669Z,100273.13
2022-08-14T17:26:27.262Z,100266.91
2022-08-14T17:28:56.702Z,100265.47
2022-08-14T17:31:57.978Z,100268.78
2022-08-14T17:34:20.452Z,100262.84
2022-08-14T17:36:46.782Z,100272.59
2022-08-14T17:39:14.751Z,100267.50
2022-08-14T17:41:43.708Z,100264.94
2022-08-14T17:44:10.654Z,100269.56
2022-08-14T17:46:37.185Z,100272.56
2022-08-14T17:49:16.255Z,100272.72
2022-08-14T17:51:53.827Z,100269.00
2022-08-14T17:54:22.448Z,100271.94
2022-08-14T17:56:49.230Z,100270.72
2022-08-14T17:59:17.681Z,100273.84
2022-08-14T18:01:45.830Z,100272.59
2022-08-14T18:04:27.635Z,100275.47
2022-08-14T18:06:58.624Z,100273.09
2022-08-14T18:09:35.510Z,100282.03
2022-08-14T18:12:01.735Z,100289.91
2022-08-14T18:14:32.360Z,100289.22
2022-08-14T18:17:16.040Z,100285.09
2022-08-14T18:19:42.375Z,100289.31
2022-08-14T18:22:31.265Z,100291.63
2022-08-14T18:24:54.861Z,100308.81
2022-08-14T18:27:23.055Z,100306.38
2022-08-14T18:29:55.371Z,100307.00
2022-08-14T18:32:22.142Z,100314.00
2022-08-14T18:34:51.173Z,100311.59
2022-08-14T18:37:18.334Z,100322.63
2022-08-14T18:40:03.600Z,100325.31
2022-08-14T18:42:30.739Z,100318.88
2022-08-14T18:44:57.005Z,100317.69
2022-08-14T18:47:23.743Z,100312.03
2022-08-14T18:49:51.980Z,100312.28
2022-08-14T18:52:18.664Z,100321.97
2022-08-14T18:54:48.683Z,100321.13
2022-08-14T18:57:26.354Z,100324.38
2022-08-14T18:59:54.094Z,100329.44
2022-08-14T19:02:24.690Z,100328.38
2022-08-14T19:04:57.145Z,100325.94
2022-08-14T19:07:25.427Z,100337.75
2022-08-14T19:09:51.830Z,100333.13
2022-08-14T19:12:27.548Z,100334.78
2022-08-14T19:14:54.898Z,100347.91
2022-08-14T19:17:21.166Z,100331.38
2022-08-14T19:19:48.538Z,100337.63
2022-08-14T19:22:20.454Z,100341.59
2022-08-14T19:24:56.264Z,100338.44
2022-08-14T19:27:25.183Z,100340.84
2022-08-14T19:29:52.677Z,100340.22
2022-08-14T19:32:19.101Z,100345.16
2022-08-14T19:34:48.029Z,100342.00
2022-08-14T19:37:18.360Z,100337.75
2022-08-14T19:39:48.453Z,100337.41
2022-08-14T19:42:28.350Z,100337.25
2022-08-14T19:44:56.927Z,100333.47
2022-08-14T19:47:23.999Z,100326.09
2022-08-14T19:50:07.898Z,100322.94
2022-08-14T19:52:37.342Z,100330.88
2022-08-14T19:55:05.804Z,100320.50
2022-08-14T19:57:32.836Z,100313.56
2022-08-14T19:59:59.135Z,100313.88
2022-08-14T20:02:30.057Z,100308.41
2022-08-14T20:04:57.903Z,100314.66
2022-08-14T20:07:24.244Z,100313.66
2022-08-14T20:11:07.095Z,100319.03
2022-08-14T20:12:58.097Z,100319.13
2022-08-14T20:15:24.604Z,100316.63
2022-08-14T20:17:52.555Z,100315.38
2022-08-14T20:20:30.565Z,100319.44
2022-08-14T20:22:57.746Z,100319.28
2022-08-14T20:25:28.218Z,100317.41
2022-08-14T20:27:59.768Z,100319.41
2022-08-14T20:30:34.124Z,100317.56
2022-08-14T20:33:01.910Z,100306.94
2022-08-14T20:35:35.519Z,100312.31
2022-08-14T20:38:31.659Z,100308.53
2022-08-14T20:40:50.279Z,100301.97
2022-08-14T20:43:16.944Z,100306.28
2022-08-14T20:45:43.196Z,100309.47
2022-08-14T20:48:10.121Z,100298.03
2022-08-14T20:50:44.923Z,100300.16
2022-08-14T20:53:11.497Z,100301.44
2022-08-14T20:55:41.780Z,100303.56
2022-08-14T20:58:41.899Z,100302.75
2022-08-14T21:00:57.855Z,100304.03
2022-08-14T21:03:24.273Z,100310.00
2022-08-14T21:05:56.716Z,100308.75
2022-08-14T21:08:26.130Z,100304.53
2022-08-14T21:10:52.526Z,100302.44
2022-08-14T21:14:08.815Z,100309.47
2022-08-14T21:16:33.256Z,100301.63
2022-08-14T21:18:53.699Z,100309.53
2022-08-14T21:21:19.944Z,100308.06
2022-08-14T21:23:54.018Z,100306.59
2022-08-14T21:26:51.173Z,100303.00
2022-08-14T21:29:08.044Z,100306.81
2022-08-14T21:31:34.270Z,100311.09
2022-08-14T21:34:01.281Z,100310.47
2022-08-14T21:36:31.902Z,100314.75
2022-08-14T21:38:58.249Z,100309.44
2022-08-14T21:41:43.241Z,100305.19
2022-08-14T21:44:17.468Z,100299.03
2022-08-14T21:46:44.667Z,100295.66
2022-08-14T21:49:10.912Z,100295.22
2022-08-14T21:51:53.452Z,100285.50
2022-08-14T21:54:31.839Z,100291.47
2022-08-14T21:56:58.843Z,100290.22
2022-08-14T21:59:28.971Z,100288.69
2022-08-14T22:02:01.082Z,100289.38
2022-08-14T22:04:33.347Z,100285.56
2022-08-14T22:07:01.194Z,100274.31
2022-08-14T22:09:32.356Z,100282.22
2022-08-14T22:11:58.997Z,100282.63
2022-08-14T22:14:26.562Z,100281.16
2022-08-14T22:17:03.307Z,100284.78
2022-08-14T22:19:47.208Z,100284.78
2022-08-14T22:22:20.859Z,100272.69
2022-08-14T22:24:53.946Z,100285.28
2022-08-14T22:27:26.110Z,100274.84
2022-08-14T22:29:54.715Z,100281.88
2022-08-14T22:32:35.006Z,100275.13
2022-08-14T22:35:10.291Z,100270.22
2022-08-14T22:37:36.674Z,100270.88
2022-08-14T22:40:50.732Z,100273.03
2022-08-14T22:42:59.904Z,100277.06
2022-08-14T22:45:27.068Z,100265.38
2022-08-14T22:48:03.064Z,100268.53
2022-08-14T22:50:33.652Z,100266.88
2022-08-14T22:53:00.268Z,100271.72
2022-08-14T22:55:26.768Z,100268.34
2022-08-14T22:57:53.085Z,100267.94
2022-08-14T23:00:19.653Z,100260.09
2022-08-14T23:02:46.050Z,100257.75
2022-08-14T23:05:12.464Z,100262.84
2022-08-14T23:09:01.722Z,100261.38
2022-08-14T23:10:32.472Z,100262.88
2022-08-14T23:13:00.491Z,100261.59
2022-08-14T23:15:29.913Z,100262.47
2022-08-14T23:17:56.719Z,100257.34
2022-08-14T23:20:22.961Z,100264.56
2022-08-14T23:22:49.182Z,100263.13
2022-08-14T23:25:17.902Z,100258.03
2022-08-14T23:28:03.306Z,100262.28
2022-08-14T23:30:31.877Z,100267.34
2022-08-14T23:33:01.776Z,100269.03
2022-08-14T23:35:28.112Z,100263.94
2022-08-14T23:37:54.387Z,100267.34
2022-08-14T23:40:29.644Z,100260.34
2022-08-14T23:42:56.574Z,100248.66
2022-08-14T23:45:37.146Z,100256.06
2022-08-14T23:48:03.836Z,100253.13
2022-08-14T23:50:34.196Z,100250.97
2022-08-14T23:53:07.439Z,100252.47
2022-08-14T23:55:34.662Z,100250.09
2022-08-14T23:58:01.150Z,100245.69
